AirNav   Bose ProFlight Aviation Headset
 
 1544 users online  

4KY5 Weavers Run Airport
West Point, Kentucky, USA

GOING TO WEST POINT?


FAA INFORMATION EFFECTIVE 13 SEPTEMBER 2018

Location

FAA Identifier: 4KY5
Lat/Long: 38-01-43.0000N / 085-53-24.0000W
38-01.716667N / 085-53.400000W
38.0286111 / -85.8900000
(estimated)
Elevation: 550 ft. / 168 m (estimated)
Variation: 04W ()
From city: 5 miles NE of WEST POINT, KY
Time zone: UTC -4 (UTC -5 during Standard Time)
Zip code: 40353

Airport Operations

Airport use: Private use. Permission required prior to landing
Activation date: 05/2000
Control tower: no
ARTCC: INDIANAPOLIS CENTER
FSS: LOUISVILLE FLIGHT SERVICE STATION
Attendance: UNATNDD
Wind indicator: yes
Segmented circle: no

Airport Communications

WX ASOS at SDF (11 nm NE): PHONE 502-367-1492
WX ASOS at LOU (16 nm NE): 118.275 (502-473-0693)

Nearby radio navigation aids

VOR radial/distance  VOR name  Freq  Var
FTKr029/8.3FORT KNOX VOR/DME109.6001W
IIUr252/15.4LOUISVILLE VORTAC114.8001E
BQMr225/16.1BOWMAN VOR/DME112.2004W
MYSr065/(18.6)MYSTIC VOR108.2001W
EWOr336/25.9NEW HOPE VOR/DME110.8001E

 
NDB name  Hdg/Dist  Freq  Var  ID
GODMAN047/5.939603WGOI --. --- ..
LAANG244/14.041404WLK .-.. -.-

Airport Services

Runway Information

Runway 6/24

Dimensions: 750 x 70 ft. / 229 x 21 m
Surface: turf
Runway edge markings: RY 06/24 MKD WITH PLASTIC SQUARES.
RUNWAY 6  RUNWAY 24
Traffic pattern: leftleft
Obstructions: hilltrees

Airport Ownership and Management from official FAA records

Ownership: Privately-owned
Owner: GARY DOTSON
1367 WEAVERS RUN ROAD
WEST POINT, KY 40177
Phone 502-922-0365
Manager: GARY DOTSON
1367 WEAVERS RUN ROAD
WEST POINT, KY 40177
Phone 502-922-0365

Airport Operational Statistics

Aircraft based on the field: 2
Single engine airplanes: 2
    

Instrument Procedures

There are no published instrument procedures at 4KY5.

Some nearby airports with instrument procedures:

KFTK - Godman Army Airfield (8 nm SW)
KSDF - Louisville International Airport-Standiford Field (11 nm NE)
KLOU - Bowman Field Airport (16 nm NE)
KEKX - Addington Field Airport (21 nm S)
KJVY - Clark Regional Airport (22 nm N)
 
Loc | Ops | Rwys | IFR | FBO | Links
Com | Nav | Svcs | Stats | Notes


 
Area around 4KY5 (Weavers Run Airport)
 
Road maps at: MapQuest Bing Google
 
Aerial photo
No photo
 
Sectional chart

 
Airport distance calculator
Flying to Weavers Run Airport? Find the distance to fly.

From to 4KY5

Sunrise and sunset
Times for 21-Sep-2018
 Local
(UTC-4)
 Zulu
(UTC)
Morning civil twilight07:0511:05
Sunrise07:3111:31
Sunset19:4223:42
Evening civil twilight20:0800:08

Current date and time
Zulu (UTC)  21-Sep-2018 16:13:55
Local (UTC-4)  21-Sep-2018 12:13:55
 
METAR
KFTK 
9nm SW 
211556Z AUTO 19012G18KT 10SM FEW038 30/22 A3007 RMK AO2 SLP178 T03030216 $
KSDF 
12nm NE 
211556Z 21009KT 10SM FEW120 FEW250 30/22 A3005 RMK AO2 SLP169 T03000217
KLOU 
15nm NE 
211553Z 20008G17KT 10SM CLR 31/23 A3006 RMK AO2 SLP171 T03060228
KEKX 
19nm S 
211555Z AUTO 20011KT 10SM CLR 30/21 A3008 RMK AO2 T02970211
TAF
KFTK 
9nm SW 
210900Z 2109/2215 20009KT 9999 FEW050 QNH2999INS TEMPO 2123/2201 27015G25KT 6000 -TSRA BKN035CB BECMG 2200/2201 33009KT 9999 SCT020 BKN150 QNH3002INS BECMG 2206/2207 36009KT 9999 BKN150 QNH3012INS BECMG 2214/2215 05012KT 9999 BKN100 QNH2996INS TX32/2121Z TN17/2209Z
KSDF 
12nm NE 
211137Z 2112/2218 19012KT P6SM SCT080 BKN120 FM211300 21013G19KT P6SM BKN080 FM211800 24014G22KT P6SM VCTS BKN060CB TEMPO 2121/2124 VRB15G25KT 2SM TSRA FM220100 32011G16KT P6SM BKN060 FM220600 36012KT P6SM SCT023 OVC060
NOTAMs
Click for the latest NOTAMs
NOTAMs are issued by the DoD/FAA and will open in a separate window not controlled by AirNav.

 

 
 

Would you like to see your business listed on this page?

 If your business provides an interesting product or service to pilots, flight crews, aircraft, or users of the Weavers Run Airport, you should consider listing it here.  To start the listing process, click on the button below
 
Add a business
 

Other Pages about Weavers Run Airport

Update a link
 
Copyright © AirNav, LLC. All rights reserved. Privacy Policy  Contact